createdAt,value
2018-12-14T00:01:20.260Z,2.22
2018-12-14T00:03:49.251Z,2.18
2018-12-14T00:06:18.187Z,2.11
2018-12-14T00:08:47.151Z,2.01
2018-12-14T00:11:16.143Z,2.17
2018-12-14T00:13:45.233Z,2.14
2018-12-14T00:16:14.107Z,2.01
2018-12-14T00:18:42.996Z,2.06
2018-12-14T00:21:11.940Z,2.23
2018-12-14T00:23:40.642Z,1.99
2018-12-14T00:26:09.592Z,2.24
2018-12-14T00:28:38.452Z,2.23
2018-12-14T00:31:07.615Z,2.22
2018-12-14T00:33:36.677Z,2.17
2018-12-14T00:36:05.735Z,2.15
2018-12-14T00:38:34.825Z,2.08
2018-12-14T00:41:03.721Z,2.12
2018-12-14T00:43:32.790Z,2.06
2018-12-14T00:46:01.792Z,2.07
2018-12-14T00:48:30.823Z,2.06
2018-12-14T00:50:59.445Z,2.06
2018-12-14T00:53:28.303Z,2.09
2018-12-14T00:55:56.927Z,2.09
2018-12-14T00:58:25.973Z,2.05
2018-12-14T01:00:54.975Z,1.98
2018-12-14T01:03:23.696Z,1.96
2018-12-14T01:05:52.904Z,1.91
2018-12-14T01:08:21.639Z,1.78
2018-12-14T01:10:50.498Z,1.70
2018-12-14T01:13:19.520Z,1.68
2018-12-14T01:15:48.446Z,1.68
2018-12-14T01:18:17.347Z,1.67
2018-12-14T01:20:46.289Z,1.72
2018-12-14T01:23:15.256Z,1.61
2018-12-14T01:25:44.050Z,1.79
2018-12-14T01:28:12.818Z,1.83
2018-12-14T01:30:41.662Z,1.79
2018-12-14T01:33:10.640Z,1.72
2018-12-14T01:35:39.547Z,1.69
2018-12-14T01:38:08.394Z,1.82
2018-12-14T01:40:37.332Z,1.83
2018-12-14T01:43:06.298Z,1.86
2018-12-14T01:45:35.494Z,1.79
2018-12-14T01:48:04.457Z,1.70
2018-12-14T01:50:33.418Z,1.70
2018-12-14T01:53:02.222Z,1.73
2018-12-14T01:55:31.252Z,1.74
2018-12-14T01:58:00.314Z,1.73
2018-12-14T02:00:29.386Z,1.81
2018-12-14T02:02:58.252Z,1.83
2018-12-14T02:05:27.315Z,1.91
2018-12-14T02:07:56.079Z,1.85
2018-12-14T02:10:25.066Z,1.97
2018-12-14T02:12:54.058Z,2.03
2018-12-14T02:15:22.744Z,2.13
2018-12-14T02:17:51.675Z,2.19
2018-12-14T02:20:20.504Z,2.21
2018-12-14T02:22:49.371Z,2.39
2018-12-14T02:25:18.345Z,2.45
2018-12-14T02:27:47.363Z,2.42
2018-12-14T02:30:27.091Z,2.61
2018-12-14T02:32:56.118Z,2.55
2018-12-14T02:35:25.068Z,2.57
2018-12-14T02:37:54.287Z,2.55
2018-12-14T02:40:23.353Z,2.49
2018-12-14T02:42:52.274Z,2.58
2018-12-14T02:45:21.193Z,2.72
2018-12-14T02:47:50.235Z,2.78
2018-12-14T02:50:19.318Z,2.69
2018-12-14T02:52:48.377Z,2.76
2018-12-14T02:55:17.467Z,2.84
2018-12-14T02:57:46.531Z,2.75
2018-12-14T03:00:15.241Z,2.64
2018-12-14T03:02:44.457Z,2.56
2018-12-14T03:05:13.399Z,2.39
2018-12-14T03:07:42.354Z,2.33
2018-12-14T03:10:11.505Z,2.24
2018-12-14T03:12:40.364Z,2.44
2018-12-14T03:15:09.399Z,2.56
2018-12-14T03:17:38.544Z,2.46
2018-12-14T03:20:08.476Z,2.30
2018-12-14T03:22:37.625Z,2.22
2018-12-14T03:25:06.759Z,2.22
2018-12-14T03:27:35.799Z,2.15
2018-12-14T03:30:05.435Z,2.01
2018-12-14T03:32:34.468Z,2.03
2018-12-14T03:35:03.305Z,2.13
2018-12-14T03:37:32.377Z,2.08
2018-12-14T03:40:01.407Z,2.07
2018-12-14T03:42:34.234Z,2.13
2018-12-14T03:45:01.305Z,2.37
2018-12-14T03:47:30.040Z,2.52
2018-12-14T03:49:59.174Z,2.58
2018-12-14T03:52:28.206Z,2.63
2018-12-14T03:54:56.936Z,2.76
2018-12-14T03:57:25.792Z,2.74
2018-12-14T03:59:54.706Z,2.68
2018-12-14T04:02:23.571Z,2.67
2018-12-14T04:04:52.488Z,2.50
2018-12-14T04:07:21.469Z,2.63
2018-12-14T04:09:50.417Z,2.78
2018-12-14T04:12:19.508Z,2.77
2018-12-14T04:14:48.649Z,2.73
2018-12-14T04:17:17.681Z,2.74
2018-12-14T04:19:46.744Z,2.68
2018-12-14T04:22:15.659Z,2.55
2018-12-14T04:24:44.593Z,2.43
2018-12-14T04:27:13.639Z,2.62
2018-12-14T04:29:42.553Z,2.78
2018-12-14T04:32:11.301Z,2.75
2018-12-14T04:34:40.429Z,2.72
2018-12-14T04:37:09.342Z,2.73
2018-12-14T04:39:38.064Z,2.68
2018-12-14T04:42:07.090Z,2.65
2018-12-14T04:44:35.744Z,2.65
2018-12-14T04:47:04.657Z,2.70
2018-12-14T04:49:33.849Z,2.65
2018-12-14T04:52:05.196Z,2.62
2018-12-14T04:54:34.266Z,2.60
2018-12-14T04:57:03.139Z,2.43
2018-12-14T04:59:32.224Z,2.28
2018-12-14T05:02:01.284Z,2.36
2018-12-14T05:04:30.334Z,2.46
2018-12-14T05:06:59.196Z,2.53
2018-12-14T05:09:28.366Z,2.52
2018-12-14T05:11:57.369Z,2.39
2018-12-14T05:14:26.319Z,2.29
2018-12-14T05:16:55.200Z,2.20
2018-12-14T05:19:24.204Z,2.09
2018-12-14T05:21:53.228Z,1.92
2018-12-14T05:24:21.888Z,1.83
2018-12-14T05:26:50.503Z,1.81
2018-12-14T05:29:19.464Z,1.81
2018-12-14T05:31:48.293Z,1.79
2018-12-14T05:34:17.389Z,1.70
2018-12-14T05:36:45.992Z,1.68
2018-12-14T05:39:15.191Z,1.61
2018-12-14T05:41:44.032Z,1.68
2018-12-14T05:44:12.968Z,1.70
2018-12-14T05:46:42.080Z,1.65
2018-12-14T05:49:11.088Z,1.62
2018-12-14T05:51:40.038Z,1.61
2018-12-14T05:54:09.059Z,1.58
2018-12-14T05:56:38.183Z,1.63
2018-12-14T05:59:06.995Z,1.68
2018-12-14T06:01:36.048Z,1.68
2018-12-14T06:04:05.311Z,1.74
2018-12-14T06:06:34.037Z,1.80
2018-12-14T06:09:04.192Z,1.81
2018-12-14T06:11:33.277Z,1.79
2018-12-14T06:14:02.281Z,1.83
2018-12-14T06:16:30.948Z,1.92
2018-12-14T06:18:59.966Z,1.92
2018-12-14T06:21:29.076Z,2.01
2018-12-14T06:23:58.046Z,2.05
2018-12-14T06:26:27.075Z,1.98
2018-12-14T06:28:55.980Z,2.04
2018-12-14T06:31:25.008Z,2.17
2018-12-14T06:33:53.740Z,2.28
2018-12-14T06:36:22.584Z,2.32
2018-12-14T06:38:51.525Z,2.23
2018-12-14T06:41:20.455Z,2.23
2018-12-14T06:43:49.518Z,2.22
2018-12-14T06:46:18.838Z,2.63
2018-12-14T06:48:47.897Z,2.75
2018-12-14T06:51:16.939Z,2.78
2018-12-14T06:53:45.956Z,2.74
2018-12-14T06:56:14.847Z,2.82
2018-12-14T06:58:43.839Z,2.85
2018-12-14T07:01:12.872Z,2.89
2018-12-14T07:03:41.912Z,2.92
2018-12-14T07:06:10.828Z,2.85
2018-12-14T07:08:39.554Z,2.85
2018-12-14T07:11:08.488Z,3.11
2018-12-14T07:13:37.248Z,3.17
2018-12-14T07:16:06.289Z,3.34
2018-12-14T07:18:35.383Z,3.36
2018-12-14T07:21:04.285Z,3.56
2018-12-14T07:23:33.334Z,3.68
2018-12-14T07:26:02.099Z,3.82
2018-12-14T07:28:30.808Z,3.95
2018-12-14T07:30:59.893Z,4.07
2018-12-14T07:33:28.850Z,4.21
2018-12-14T07:35:57.753Z,4.44
2018-12-14T07:38:26.834Z,4.56
2018-12-14T07:40:55.701Z,4.70
2018-12-14T07:43:28.323Z,4.90
2018-12-14T07:45:55.494Z,5.11
2018-12-14T07:48:24.361Z,5.27
2018-12-14T07:50:53.325Z,5.48
2018-12-14T07:53:22.091Z,5.62
2018-12-14T07:55:51.253Z,5.77
2018-12-14T07:58:20.374Z,5.75
2018-12-14T08:00:49.411Z,5.86
2018-12-14T08:03:18.430Z,6.00
2018-12-14T08:05:47.491Z,6.15
2018-12-14T08:08:16.728Z,6.29
2018-12-14T08:10:45.692Z,6.50
2018-12-14T08:13:14.801Z,6.78
2018-12-14T08:15:43.767Z,7.10
2018-12-14T08:18:12.695Z,7.30
2018-12-14T08:20:41.636Z,7.38
2018-12-14T08:23:10.308Z,7.31
2018-12-14T08:25:39.201Z,7.30
2018-12-14T08:28:08.194Z,7.33
2018-12-14T08:30:37.312Z,7.30
2018-12-14T08:33:06.403Z,7.30
2018-12-14T08:35:35.292Z,7.25
2018-12-14T08:38:04.324Z,7.25
2018-12-14T08:40:33.393Z,7.30
2018-12-14T08:43:02.040Z,7.35
2018-12-14T08:45:30.936Z,7.44
2018-12-14T08:48:00.151Z,7.55
2018-12-14T08:50:29.054Z,7.58
2018-12-14T08:52:57.938Z,7.69
2018-12-14T08:55:26.611Z,7.67
2018-12-14T08:57:55.317Z,7.71
2018-12-14T09:00:24.403Z,7.75
2018-12-14T09:02:53.394Z,7.75
2018-12-14T09:05:22.321Z,7.92
2018-12-14T09:07:51.356Z,8.01
2018-12-14T09:10:20.377Z,7.99
2018-12-14T09:12:49.358Z,8.02
2018-12-14T09:15:18.141Z,7.70
2018-12-14T09:17:47.394Z,7.63
2018-12-14T09:20:16.552Z,7.60
2018-12-14T09:22:45.374Z,7.49
2018-12-14T09:25:14.297Z,7.43
2018-12-14T09:27:43.369Z,7.31
2018-12-14T09:30:12.551Z,7.12
2018-12-14T09:32:41.517Z,7.06
2018-12-14T09:35:10.438Z,7.04
2018-12-14T09:37:39.377Z,7.03
2018-12-14T09:40:08.428Z,7.14
2018-12-14T09:42:37.366Z,7.07
2018-12-14T09:45:06.931Z,7.05
2018-12-14T09:47:35.918Z,7.04
2018-12-14T09:50:05.192Z,6.59
2018-12-14T09:52:34.164Z,6.74
2018-12-14T09:55:03.204Z,6.57
2018-12-14T09:57:32.103Z,6.63
2018-12-14T10:00:01.006Z,6.59
2018-12-14T10:02:30.124Z,6.54
2018-12-14T10:04:59.042Z,6.59
2018-12-14T10:07:27.975Z,6.52
2018-12-14T10:09:56.940Z,6.49
2018-12-14T10:12:25.952Z,6.52
2018-12-14T10:14:54.794Z,6.27
2018-12-14T10:17:23.664Z,6.39
2018-12-14T10:19:52.708Z,6.47
2018-12-14T10:22:21.797Z,6.39
2018-12-14T10:24:50.646Z,6.43
2018-12-14T10:27:19.710Z,6.44
2018-12-14T10:29:48.720Z,6.49
2018-12-14T10:32:17.723Z,6.54
2018-12-14T10:34:46.821Z,6.16
2018-12-14T10:37:15.489Z,6.36
2018-12-14T10:39:44.544Z,6.47
2018-12-14T10:42:13.618Z,6.51
2018-12-14T10:44:42.547Z,6.19
2018-12-14T10:47:11.713Z,6.44
2018-12-14T10:49:40.810Z,6.50
2018-12-14T10:52:09.427Z,6.31
2018-12-14T10:54:38.735Z,6.22
2018-12-14T10:57:07.675Z,6.24
2018-12-14T10:59:36.640Z,6.23
2018-12-14T11:02:05.356Z,6.29
2018-12-14T11:04:34.121Z,6.26
2018-12-14T11:07:03.042Z,6.19
2018-12-14T11:09:32.245Z,6.02
2018-12-14T11:12:01.242Z,5.87
2018-12-14T11:14:29.943Z,5.79
2018-12-14T11:16:58.901Z,6.00
2018-12-14T11:19:27.896Z,6.19
2018-12-14T11:21:56.792Z,6.31
2018-12-14T11:24:25.847Z,6.17
2018-12-14T11:26:54.985Z,6.29
2018-12-14T11:29:24.562Z,6.33
2018-12-14T11:31:53.168Z,6.20
2018-12-14T11:34:22.325Z,6.44
2018-12-14T11:36:51.097Z,6.55
2018-12-14T11:39:20.206Z,6.56
2018-12-14T11:41:49.213Z,6.60
2018-12-14T11:44:21.342Z,6.52
2018-12-14T11:46:49.232Z,6.21
2018-12-14T11:49:18.185Z,6.01
2018-12-14T11:51:47.315Z,6.05
2018-12-14T11:54:17.492Z,6.06
2018-12-14T11:56:46.348Z,5.96
2018-12-14T11:59:15.260Z,5.91
2018-12-14T12:01:44.274Z,6.02
2018-12-14T12:04:13.265Z,6.00
2018-12-14T12:06:42.220Z,5.96
2018-12-14T12:09:12.303Z,6.08
2018-12-14T12:11:41.252Z,6.22
2018-12-14T12:14:10.227Z,6.25
2018-12-14T12:16:39.277Z,6.07
2018-12-14T12:19:08.285Z,6.18
2018-12-14T12:21:37.450Z,6.24
2018-12-14T12:24:06.248Z,6.20
2018-12-14T12:26:35.157Z,6.34
2018-12-14T12:29:03.849Z,6.43
2018-12-14T12:31:32.779Z,6.58
2018-12-14T12:34:01.476Z,6.63
2018-12-14T12:36:30.478Z,6.65
2018-12-14T12:38:59.400Z,6.64
2018-12-14T12:41:28.212Z,6.63
2018-12-14T12:43:57.277Z,6.56
2018-12-14T12:46:26.377Z,6.42
2018-12-14T12:48:55.502Z,6.37
2018-12-14T12:51:24.960Z,6.05
2018-12-14T12:53:53.707Z,6.04
2018-12-14T12:56:22.924Z,5.97
2018-12-14T12:58:51.912Z,5.96
2018-12-14T13:01:20.859Z,5.96
2018-12-14T13:03:49.896Z,6.06
2018-12-14T13:06:18.971Z,6.05
2018-12-14T13:08:48.070Z,6.05
2018-12-14T13:11:17.081Z,5.92
2018-12-14T13:13:46.031Z,5.96
2018-12-14T13:16:14.757Z,5.81
2018-12-14T13:18:43.549Z,5.86
2018-12-14T13:21:12.474Z,5.89
2018-12-14T13:23:41.513Z,5.90
2018-12-14T13:26:10.522Z,5.73
2018-12-14T13:28:39.461Z,5.68
2018-12-14T13:31:08.538Z,5.58
2018-12-14T13:33:37.704Z,5.61
2018-12-14T13:36:06.885Z,5.75
2018-12-14T13:38:35.831Z,5.38
2018-12-14T13:41:04.941Z,5.32
2018-12-14T13:43:33.895Z,5.40
2018-12-14T13:46:02.961Z,5.38
2018-12-14T13:48:31.799Z,5.26
2018-12-14T13:51:00.871Z,5.34
2018-12-14T13:53:29.868Z,5.35
2018-12-14T13:55:58.942Z,5.36
2018-12-14T13:58:28.003Z,5.32
2018-12-14T14:00:57.068Z,5.35
2018-12-14T14:03:25.984Z,5.16
2018-12-14T14:05:54.861Z,5.22
2018-12-14T14:08:23.831Z,5.31
2018-12-14T14:10:52.828Z,5.41
2018-12-14T14:13:21.895Z,5.12
2018-12-14T14:15:51.003Z,5.09
2018-12-14T14:18:19.943Z,5.27
2018-12-14T14:20:48.887Z,5.10
2018-12-14T14:23:17.708Z,4.87
2018-12-14T14:25:47.272Z,4.99
2018-12-14T14:28:16.289Z,5.03
2018-12-14T14:30:45.207Z,5.23
2018-12-14T14:33:14.152Z,5.40
2018-12-14T14:35:43.178Z,5.50
2018-12-14T14:38:12.216Z,5.58
2018-12-14T14:40:41.236Z,5.64
2018-12-14T14:43:10.156Z,5.56
2018-12-14T14:45:39.048Z,5.60
2018-12-14T14:48:08.207Z,5.59
2018-12-14T14:50:37.706Z,5.45
2018-12-14T14:53:06.642Z,5.44
2018-12-14T14:55:35.669Z,5.33
2018-12-14T14:58:04.764Z,5.25
2018-12-14T15:00:34.072Z,5.20
2018-12-14T15:03:03.250Z,5.27
2018-12-14T15:05:32.462Z,5.26
2018-12-14T15:08:01.393Z,5.19
2018-12-14T15:10:30.486Z,5.21
2018-12-14T15:12:59.307Z,5.20
2018-12-14T15:15:28.346Z,5.19
2018-12-14T15:17:57.128Z,5.15
2018-12-14T15:20:25.983Z,5.09
2018-12-14T15:22:54.844Z,4.92
2018-12-14T15:25:24.016Z,4.89
2018-12-14T15:27:53.332Z,4.92
2018-12-14T15:30:22.122Z,4.89
2018-12-14T15:32:50.944Z,4.83
2018-12-14T15:35:19.602Z,4.93
2018-12-14T15:37:48.437Z,4.92
2018-12-14T15:40:17.489Z,4.96
2018-12-14T15:42:46.424Z,4.90
2018-12-14T15:45:15.116Z,5.07
2018-12-14T15:47:44.125Z,5.10
2018-12-14T15:50:12.908Z,4.93
2018-12-14T15:52:41.629Z,4.82
2018-12-14T15:55:10.811Z,4.66
2018-12-14T15:57:39.815Z,4.50
2018-12-14T16:00:08.867Z,4.44
2018-12-14T16:02:37.911Z,4.51
2018-12-14T16:05:06.935Z,4.54
2018-12-14T16:07:35.718Z,4.43
2018-12-14T16:10:06.915Z,4.49
2018-12-14T16:12:36.022Z,4.44
2018-12-14T16:15:05.969Z,4.45
2018-12-14T16:17:35.544Z,4.57
2018-12-14T16:20:05.148Z,4.66
2018-12-14T16:22:34.253Z,4.54
2018-12-14T16:25:03.222Z,4.63
2018-12-14T16:27:32.264Z,4.50
2018-12-14T16:30:01.208Z,4.58
2018-12-14T16:32:30.195Z,4.53
2018-12-14T16:34:59.001Z,4.39
2018-12-14T16:37:27.968Z,4.32
2018-12-14T16:39:56.933Z,4.23
2018-12-14T16:42:26.785Z,4.18
2018-12-14T16:44:55.780Z,4.19
2018-12-14T16:47:25.727Z,4.13
2018-12-14T16:49:54.687Z,4.03
2018-12-14T16:52:23.608Z,3.93
2018-12-14T16:54:52.717Z,3.85
2018-12-14T16:57:21.756Z,3.80
2018-12-14T16:59:50.659Z,3.75
2018-12-14T17:02:19.769Z,3.85
2018-12-14T17:04:49.041Z,3.82
2018-12-14T17:07:18.064Z,3.88
2018-12-14T17:09:47.032Z,4.10
2018-12-14T17:12:15.968Z,4.12
2018-12-14T17:14:44.661Z,3.97
2018-12-14T17:17:13.642Z,4.07
2018-12-14T17:19:42.636Z,4.10
2018-12-14T17:22:11.705Z,4.07
2018-12-14T17:24:40.828Z,4.05
2018-12-14T17:27:10.049Z,3.92
2018-12-14T17:29:39.245Z,3.80
2018-12-14T17:32:08.040Z,3.68
2018-12-14T17:34:36.927Z,3.75
2018-12-14T17:37:05.888Z,3.66
2018-12-14T17:39:35.646Z,3.71
2018-12-14T17:42:04.711Z,3.67
2018-12-14T17:44:33.743Z,3.63
2018-12-14T17:47:02.812Z,3.59
2018-12-14T17:49:31.728Z,3.49
2018-12-14T17:52:00.722Z,3.38
2018-12-14T17:54:29.812Z,3.37
2018-12-14T17:56:58.805Z,3.34
2018-12-14T17:59:27.864Z,3.20
2018-12-14T18:01:56.842Z,3.01
2018-12-14T18:04:25.848Z,2.81
2018-12-14T18:06:54.716Z,2.67
2018-12-14T18:09:24.030Z,2.57
2018-12-14T18:11:52.844Z,2.53
2018-12-14T18:14:21.712Z,2.46
2018-12-14T18:16:50.775Z,2.43
2018-12-14T18:19:19.744Z,2.38
2018-12-14T18:21:48.490Z,2.57
2018-12-14T18:24:17.598Z,2.63
2018-12-14T18:26:48.237Z,2.63
2018-12-14T18:29:16.890Z,2.54
2018-12-14T18:31:45.721Z,2.40
2018-12-14T18:34:14.821Z,2.38
2018-12-14T18:36:43.844Z,2.41
2018-12-14T18:39:12.907Z,2.28
2018-12-14T18:41:42.049Z,2.55
2018-12-14T18:44:10.768Z,2.57
2018-12-14T18:46:40.399Z,2.52
2018-12-14T18:49:09.489Z,2.53
2018-12-14T18:51:40.097Z,2.38
2018-12-14T18:54:09.016Z,2.51
2018-12-14T18:56:38.040Z,2.55
2018-12-14T18:59:07.160Z,2.39
2018-12-14T19:01:36.102Z,2.47
2018-12-14T19:04:05.080Z,2.53
2018-12-14T19:06:33.946Z,2.60
2018-12-14T19:09:02.801Z,2.62
2018-12-14T19:11:31.815Z,2.72
2018-12-14T19:14:00.844Z,2.57
2018-12-14T19:16:30.715Z,2.85
2018-12-14T19:18:59.386Z,2.86
2018-12-14T19:21:28.816Z,2.72
2018-12-14T19:23:57.613Z,2.77
2018-12-14T19:26:26.483Z,2.84
2018-12-14T19:28:55.467Z,3.12
2018-12-14T19:31:24.716Z,3.18
2018-12-14T19:33:53.710Z,3.28
2018-12-14T19:36:22.698Z,3.26
2018-12-14T19:38:52.264Z,3.35
2018-12-14T19:41:21.296Z,3.25
2018-12-14T19:43:50.304Z,3.17
2018-12-14T19:46:19.251Z,3.15
2018-12-14T19:48:48.180Z,3.11
2018-12-14T19:51:17.176Z,3.24
2018-12-14T19:53:46.257Z,3.20
2018-12-14T19:56:15.287Z,3.30
2018-12-14T19:58:44.561Z,3.27
2018-12-14T20:01:13.641Z,3.32
2018-12-14T20:03:42.947Z,3.32
2018-12-14T20:06:11.569Z,3.48
2018-12-14T20:08:40.558Z,3.33
2018-12-14T20:11:09.668Z,3.20
2018-12-14T20:13:38.560Z,3.14
2018-12-14T20:16:12.794Z,3.08
2018-12-14T20:18:38.458Z,3.10
2018-12-14T20:21:07.128Z,3.16
2018-12-14T20:23:36.260Z,3.20
2018-12-14T20:26:05.105Z,3.25
2018-12-14T20:28:34.073Z,3.33
2018-12-14T20:31:03.102Z,3.56
2018-12-14T20:33:32.393Z,3.58
2018-12-14T20:36:00.999Z,3.52
2018-12-14T20:38:29.703Z,3.48
2018-12-14T20:40:58.751Z,3.44
2018-12-14T20:43:28.463Z,3.40
2018-12-14T20:45:57.660Z,3.37
2018-12-14T20:48:26.850Z,3.26
2018-12-14T20:50:55.828Z,3.30
2018-12-14T20:53:24.774Z,3.52
2018-12-14T20:55:53.431Z,3.64
2018-12-14T20:58:22.207Z,3.52
2018-12-14T21:00:50.986Z,3.57
2018-12-14T21:03:19.909Z,3.73
2018-12-14T21:05:48.849Z,3.75
2018-12-14T21:08:17.740Z,3.67
2018-12-14T21:10:46.656Z,3.70
2018-12-14T21:13:15.808Z,3.91
2018-12-14T21:15:44.823Z,4.01
2018-12-14T21:18:13.628Z,3.97
2018-12-14T21:20:42.540Z,4.03
2018-12-14T21:23:11.840Z,4.02
2018-12-14T21:25:40.973Z,3.79
2018-12-14T21:28:09.978Z,3.69
2018-12-14T21:30:38.666Z,3.74
2018-12-14T21:33:07.424Z,3.77
2018-12-14T21:35:36.299Z,3.83
2018-12-14T21:38:05.234Z,3.91
2018-12-14T21:40:34.252Z,3.99
2018-12-14T21:43:03.283Z,4.05
2018-12-14T21:45:32.235Z,4.02
2018-12-14T21:48:00.925Z,4.10
2018-12-14T21:50:29.692Z,4.19
2018-12-14T21:52:58.624Z,3.73
2018-12-14T21:55:27.648Z,3.92
2018-12-14T21:57:56.918Z,3.98
2018-12-14T22:00:25.884Z,3.90
2018-12-14T22:02:54.751Z,3.90
2018-12-14T22:05:23.802Z,3.93
2018-12-14T22:07:52.859Z,3.84
2018-12-14T22:10:21.585Z,3.86
2018-12-14T22:12:50.748Z,3.74
2018-12-14T22:15:19.617Z,3.71
2018-12-14T22:17:48.709Z,3.69
2018-12-14T22:20:17.772Z,3.78
2018-12-14T22:22:46.547Z,3.76
2018-12-14T22:25:15.236Z,3.78
2018-12-14T22:27:43.963Z,3.90
2018-12-14T22:30:12.749Z,3.99
2018-12-14T22:32:41.540Z,3.84
2018-12-14T22:35:10.556Z,3.82
2018-12-14T22:37:39.560Z,3.82
2018-12-14T22:40:08.834Z,3.96
2018-12-14T22:42:37.831Z,3.96
2018-12-14T22:45:07.300Z,4.02
2018-12-14T22:47:36.334Z,4.18
2018-12-14T22:50:05.517Z,4.12
2018-12-14T22:52:34.426Z,3.98
2018-12-14T22:55:03.574Z,4.07
2018-12-14T22:57:32.596Z,3.92
2018-12-14T23:00:01.284Z,3.83
2018-12-14T23:02:30.100Z,3.80
2018-12-14T23:04:59.163Z,3.77
2018-12-14T23:07:28.118Z,3.78
2018-12-14T23:09:57.032Z,4.00
2018-12-14T23:12:25.713Z,3.86
2018-12-14T23:14:54.679Z,3.70
2018-12-14T23:17:23.625Z,3.81
2018-12-14T23:19:52.535Z,3.83
2018-12-14T23:22:21.260Z,3.72
2018-12-14T23:24:50.289Z,3.62
2018-12-14T23:27:19.387Z,3.61
2018-12-14T23:29:48.345Z,3.62
2018-12-14T23:32:16.999Z,3.50
2018-12-14T23:34:45.883Z,3.51
2018-12-14T23:37:14.947Z,3.41
2018-12-14T23:39:43.808Z,3.28
2018-12-14T23:42:12.887Z,3.39
2018-12-14T23:44:41.649Z,3.41
2018-12-14T23:47:10.580Z,3.34
2018-12-14T23:49:39.513Z,3.36
2018-12-14T23:52:08.266Z,3.43
2018-12-14T23:54:37.342Z,3.57
2018-12-14T23:57:12.120Z,3.70
2018-12-14T23:59:37.500Z,3.81
